DAL297 KDEN-KJFK
Flight info
| Callsign | DAL297 |
|---|---|
| Flight time | 3h 0m |
| Altitude | 39000 |
| Route | EEONS8 WYNDM HCT SAUGI KATES DBQ KG75M DAFLU J70 JHW Q476 WLKES PUCKY1 |
| Aircraft | B77L/H-SDE1E2E3FGHIJ2J3J4J5M1RWXY/LB1D1 |
Departure
| Time | 2026-05-07 02:20 |
|---|---|
| Airport | Denver International Airport (KDEN) |
Arrival
| Time | 2026-05-07 05:20 |
|---|---|
| Airport | John F. Kennedy International Airport (KJFK) |
| Time | Latitude | Longitude | Altitude | Speed | Heading |
|---|---|---|---|---|---|
| 2026-05-07 01:42 | 39.85807 | -104.67285 | 5384 ft | 0 kts | 359° |
| 2026-05-07 02:08 | 39.85803 | -104.67285 | 5386 ft | 3 kts | 0° |
| 2026-05-07 02:08 | 39.85777 | -104.67288 | 5384 ft | 4 kts | 11° |
| 2026-05-07 02:08 | 39.85751 | -104.67297 | 5385 ft | 4 kts | 21° |
| 2026-05-07 02:08 | 39.85726 | -104.67311 | 5382 ft | 4 kts | 31° |
| 2026-05-07 02:09 | 39.85704 | -104.67331 | 5383 ft | 4 kts | 40° |
| 2026-05-07 02:09 | 39.85685 | -104.67355 | 5384 ft | 4 kts | 50° |
| 2026-05-07 02:09 | 39.85669 | -104.67383 | 5384 ft | 4 kts | 66° |
| 2026-05-07 02:09 | 39.85664 | -104.67409 | 5384 ft | 0 kts | 90° |
| 2026-05-07 02:13 | 39.85664 | -104.67405 | 5384 ft | 4 kts | 89° |
| 2026-05-07 02:13 | 39.85667 | -104.67248 | 5389 ft | 29 kts | 90° |
| 2026-05-07 02:13 | 39.85662 | -104.66985 | 5391 ft | 13 kts | 91° |
| 2026-05-07 02:13 | 39.85660 | -104.66871 | 5391 ft | 13 kts | 91° |
| 2026-05-07 02:14 | 39.85658 | -104.66756 | 5391 ft | 13 kts | 90° |
| 2026-05-07 02:14 | 39.85658 | -104.66642 | 5391 ft | 13 kts | 89° |
| 2026-05-07 02:14 | 39.85673 | -104.66529 | 5391 ft | 13 kts | 79° |
| 2026-05-07 02:14 | 39.85679 | -104.66415 | 5387 ft | 13 kts | 90° |
| 2026-05-07 02:15 | 39.85681 | -104.66301 | 5392 ft | 13 kts | 79° |
| 2026-05-07 02:15 | 39.85749 | -104.66241 | 5388 ft | 13 kts | 11° |
| 2026-05-07 02:15 | 39.85840 | -104.66236 | 5393 ft | 14 kts | 359° |
| 2026-05-07 02:15 | 39.85943 | -104.66235 | 5390 ft | 16 kts | 2° |
| 2026-05-07 02:16 | 39.86058 | -104.66233 | 5388 ft | 17 kts | 359° |
| 2026-05-07 02:16 | 39.86183 | -104.66233 | 5390 ft | 19 kts | 360° |
| 2026-05-07 02:16 | 39.86320 | -104.66230 | 5384 ft | 21 kts | 1° |
| 2026-05-07 02:16 | 39.86466 | -104.66230 | 5390 ft | 21 kts | 1° |
| 2026-05-07 02:17 | 39.86608 | -104.66226 | 5388 ft | 21 kts | 1° |
| 2026-05-07 02:17 | 39.86752 | -104.66227 | 5380 ft | 21 kts | 360° |
| 2026-05-07 02:17 | 39.86899 | -104.66225 | 5376 ft | 22 kts | 1° |
| 2026-05-07 02:17 | 39.87059 | -104.66222 | 5372 ft | 24 kts | 1° |
| 2026-05-07 02:18 | 39.87227 | -104.66217 | 5369 ft | 25 kts | 1° |
| 2026-05-07 02:18 | 39.87399 | -104.66217 | 5366 ft | 25 kts | 0° |
| 2026-05-07 02:18 | 39.87565 | -104.66213 | 5365 ft | 18 kts | 1° |
| 2026-05-07 02:18 | 39.87671 | -104.66213 | 5364 ft | 14 kts | 359° |
| 2026-05-07 02:19 | 39.87750 | -104.66151 | 5360 ft | 15 kts | 69° |
| 2026-05-07 02:19 | 39.87754 | -104.65899 | 5360 ft | 67 kts | 91° |
| 2026-05-07 02:19 | 39.87742 | -104.64800 | 5354 ft | 178 kts | 91° |
| 2026-05-07 02:19 | 39.87738 | -104.62911 | 5835 ft | 228 kts | 91° |
| 2026-05-07 02:20 | 39.87781 | -104.60684 | 6915 ft | 259 kts | 87° |
| 2026-05-07 02:20 | 39.88045 | -104.58366 | 8248 ft | 261 kts | 78° |
| 2026-05-07 02:20 | 39.88354 | -104.56072 | 9353 ft | 258 kts | 75° |
| 2026-05-07 02:20 | 39.88759 | -104.53708 | 10026 ft | 281 kts | 69° |
| 2026-05-07 02:21 | 39.89316 | -104.51146 | 10033 ft | 299 kts | 69° |
| 2026-05-07 02:21 | 39.89904 | -104.48532 | 10038 ft | 302 kts | 68° |
| 2026-05-07 02:21 | 39.90505 | -104.45906 | 10032 ft | 303 kts | 68° |
| 2026-05-07 02:21 | 39.91094 | -104.43353 | 10031 ft | 302 kts | 68° |
| 2026-05-07 02:22 | 39.91704 | -104.40726 | 10442 ft | 302 kts | 68° |
| 2026-05-07 02:22 | 39.92301 | -104.38082 | 11513 ft | 305 kts | 68° |
| 2026-05-07 02:22 | 39.92890 | -104.35415 | 12685 ft | 307 kts | 67° |
| 2026-05-07 02:22 | 39.93482 | -104.32720 | 13797 ft | 311 kts | 67° |
| 2026-05-07 02:23 | 39.94077 | -104.29992 | 14800 ft | 314 kts | 67° |
| 2026-05-07 02:23 | 39.94669 | -104.27250 | 15896 ft | 314 kts | 66° |
| 2026-05-07 02:23 | 39.95258 | -104.24512 | 17029 ft | 313 kts | 66° |
| 2026-05-07 02:23 | 39.95852 | -104.21775 | 18115 ft | 315 kts | 66° |
| 2026-05-07 02:24 | 39.96435 | -104.19043 | 19036 ft | 319 kts | 68° |
| 2026-05-07 02:24 | 39.97026 | -104.16225 | 19856 ft | 325 kts | 68° |
| 2026-05-07 02:24 | 39.97539 | -104.13325 | 20695 ft | 333 kts | 73° |
| 2026-05-07 02:24 | 39.97876 | -104.10306 | 21588 ft | 339 kts | 76° |
| 2026-05-07 02:25 | 39.98170 | -104.07236 | 22449 ft | 343 kts | 76° |
| 2026-05-07 02:25 | 39.98474 | -104.04127 | 23329 ft | 347 kts | 75° |
| 2026-05-07 02:25 | 39.98796 | -104.00992 | 24115 ft | 352 kts | 75° |
| 2026-05-07 02:25 | 39.99137 | -103.97810 | 24865 ft | 355 kts | 75° |
| 2026-05-07 02:26 | 39.99484 | -103.94601 | 25612 ft | 359 kts | 75° |
| 2026-05-07 02:26 | 39.99847 | -103.91366 | 26360 ft | 362 kts | 73° |
| 2026-05-07 02:26 | 40.00331 | -103.88140 | 27111 ft | 364 kts | 70° |
| 2026-05-07 02:26 | 40.00873 | -103.84893 | 27882 ft | 368 kts | 70° |
| 2026-05-07 02:27 | 40.01419 | -103.81618 | 28616 ft | 373 kts | 71° |
| 2026-05-07 02:27 | 40.01955 | -103.78288 | 29357 ft | 377 kts | 71° |
| 2026-05-07 02:27 | 40.02493 | -103.74920 | 30083 ft | 381 kts | 71° |
| 2026-05-07 02:27 | 40.03050 | -103.71515 | 30691 ft | 385 kts | 70° |
| 2026-05-07 02:28 | 40.03617 | -103.68082 | 31268 ft | 390 kts | 71° |
| 2026-05-07 02:28 | 40.04193 | -103.64598 | 31819 ft | 395 kts | 71° |
| 2026-05-07 02:28 | 40.04767 | -103.61112 | 32360 ft | 399 kts | 71° |
| 2026-05-07 02:28 | 40.05351 | -103.57551 | 32906 ft | 403 kts | 71° |
| 2026-05-07 02:29 | 40.05940 | -103.53947 | 33431 ft | 408 kts | 71° |
| 2026-05-07 02:29 | 40.06533 | -103.50304 | 33938 ft | 412 kts | 71° |
| 2026-05-07 02:29 | 40.07131 | -103.46625 | 34404 ft | 417 kts | 72° |
| 2026-05-07 02:29 | 40.07737 | -103.42886 | 34737 ft | 423 kts | 72° |
| 2026-05-07 02:30 | 40.08349 | -103.39103 | 35030 ft | 429 kts | 72° |
| 2026-05-07 02:30 | 40.08970 | -103.35256 | 35367 ft | 435 kts | 72° |
| 2026-05-07 02:30 | 40.09595 | -103.31367 | 35709 ft | 440 kts | 72° |
| 2026-05-07 02:30 | 40.10228 | -103.27425 | 36039 ft | 445 kts | 73° |
| 2026-05-07 02:31 | 40.10864 | -103.23449 | 36360 ft | 450 kts | 73° |
| 2026-05-07 02:31 | 40.11507 | -103.19425 | 36670 ft | 455 kts | 73° |
| 2026-05-07 02:31 | 40.12155 | -103.15357 | 36980 ft | 460 kts | 73° |
| 2026-05-07 02:31 | 40.12809 | -103.11243 | 37312 ft | 466 kts | 73° |
| 2026-05-07 02:32 | 40.13473 | -103.07066 | 37512 ft | 472 kts | 73° |
| 2026-05-07 02:32 | 40.14142 | -103.02837 | 37797 ft | 477 kts | 74° |
| 2026-05-07 02:32 | 40.14813 | -102.98580 | 38110 ft | 480 kts | 74° |
| 2026-05-07 02:32 | 40.15480 | -102.94337 | 38393 ft | 484 kts | 74° |
| 2026-05-07 02:33 | 40.16160 | -102.90008 | 38651 ft | 488 kts | 74° |
| 2026-05-07 02:33 | 40.16844 | -102.85636 | 38887 ft | 492 kts | 74° |
| 2026-05-07 02:33 | 40.17532 | -102.81233 | 39075 ft | 497 kts | 75° |
| 2026-05-07 02:33 | 40.18225 | -102.76791 | 39128 ft | 502 kts | 75° |
| 2026-05-07 02:34 | 40.19619 | -102.67800 | 39150 ft | 503 kts | 75° |
| 2026-05-07 02:34 | 40.20991 | -102.58888 | 39150 ft | 497 kts | 75° |
| 2026-05-07 02:35 | 40.22348 | -102.50044 | 39162 ft | 495 kts | 75° |
| 2026-05-07 02:35 | 40.23697 | -102.41216 | 39159 ft | 494 kts | 75° |
| 2026-05-07 02:36 | 40.25031 | -102.32447 | 39172 ft | 495 kts | 75° |
| 2026-05-07 02:36 | 40.26372 | -102.23579 | 39162 ft | 497 kts | 75° |
| 2026-05-07 02:37 | 40.27711 | -102.14667 | 39158 ft | 499 kts | 75° |
| 2026-05-07 02:37 | 40.29048 | -102.05727 | 39157 ft | 501 kts | 75° |
| 2026-05-07 02:38 | 40.30381 | -101.96752 | 39152 ft | 503 kts | 76° |
| 2026-05-07 02:38 | 40.31713 | -101.87743 | 39140 ft | 504 kts | 76° |
| 2026-05-07 02:39 | 40.32817 | -101.80229 | 39128 ft | 505 kts | 76° |
| 2026-05-07 02:39 | 40.34357 | -101.69699 | 39119 ft | 505 kts | 76° |
| 2026-05-07 02:40 | 40.35459 | -101.62117 | 39128 ft | 506 kts | 76° |
| 2026-05-07 02:40 | 40.36771 | -101.53042 | 39108 ft | 506 kts | 76° |
| 2026-05-07 02:41 | 40.38077 | -101.43963 | 39120 ft | 506 kts | 76° |
| 2026-05-07 02:41 | 40.39372 | -101.34940 | 39123 ft | 506 kts | 76° |
| 2026-05-07 02:42 | 40.40673 | -101.25862 | 39136 ft | 507 kts | 76° |
| 2026-05-07 02:42 | 40.41970 | -101.16760 | 39144 ft | 507 kts | 76° |
| 2026-05-07 02:43 | 40.43259 | -101.07655 | 39145 ft | 507 kts | 76° |
| 2026-05-07 02:43 | 40.44577 | -100.98553 | 39136 ft | 506 kts | 72° |
| 2026-05-07 02:44 | 40.47145 | -100.90056 | 39147 ft | 497 kts | 56° |
| 2026-05-07 02:44 | 40.51078 | -100.82720 | 39144 ft | 489 kts | 46° |
| 2026-05-07 02:45 | 40.55363 | -100.75807 | 39129 ft | 490 kts | 46° |
| 2026-05-07 02:45 | 40.59652 | -100.68840 | 39126 ft | 490 kts | 46° |
| 2026-05-07 02:46 | 40.63905 | -100.61824 | 39125 ft | 491 kts | 46° |
| 2026-05-07 02:46 | 40.68123 | -100.54810 | 39135 ft | 491 kts | 46° |
| 2026-05-07 02:47 | 40.72343 | -100.47771 | 39120 ft | 491 kts | 46° |
| 2026-05-07 02:47 | 40.76579 | -100.40693 | 39111 ft | 491 kts | 46° |
| 2026-05-07 02:48 | 40.80813 | -100.33605 | 39105 ft | 491 kts | 46° |
| 2026-05-07 02:48 | 40.85039 | -100.26516 | 39104 ft | 491 kts | 46° |
| 2026-05-07 02:49 | 40.89241 | -100.19451 | 39120 ft | 491 kts | 47° |
| 2026-05-07 02:49 | 40.93468 | -100.12326 | 39102 ft | 492 kts | 47° |
| 2026-05-07 02:50 | 40.97690 | -100.05194 | 39097 ft | 492 kts | 47° |
| 2026-05-07 02:50 | 41.01911 | -99.98046 | 39089 ft | 492 kts | 47° |
| 2026-05-07 02:51 | 41.06123 | -99.90897 | 39088 ft | 492 kts | 47° |
| 2026-05-07 02:51 | 41.10337 | -99.83728 | 39077 ft | 492 kts | 47° |
| 2026-05-07 02:52 | 41.14548 | -99.76550 | 39071 ft | 493 kts | 47° |
| 2026-05-07 02:52 | 41.18759 | -99.69352 | 39073 ft | 494 kts | 47° |
| 2026-05-07 02:53 | 41.22964 | -99.62147 | 39058 ft | 494 kts | 47° |
| 2026-05-07 02:53 | 41.27172 | -99.54921 | 39053 ft | 493 kts | 47° |
| 2026-05-07 02:54 | 41.31342 | -99.47742 | 39050 ft | 493 kts | 47° |
| 2026-05-07 02:54 | 41.35534 | -99.40511 | 39046 ft | 493 kts | 47° |
| 2026-05-07 02:55 | 41.39723 | -99.33267 | 39067 ft | 494 kts | 47° |
| 2026-05-07 02:55 | 41.43913 | -99.26003 | 39059 ft | 495 kts | 47° |
| 2026-05-07 02:56 | 41.48086 | -99.18751 | 39061 ft | 495 kts | 47° |
| 2026-05-07 02:56 | 41.52273 | -99.11458 | 39044 ft | 495 kts | 47° |
| 2026-05-07 02:57 | 41.56461 | -99.04147 | 39049 ft | 496 kts | 47° |
| 2026-05-07 02:57 | 41.60654 | -98.96807 | 39040 ft | 497 kts | 47° |
| 2026-05-07 02:58 | 41.64851 | -98.89443 | 39060 ft | 497 kts | 47° |
| 2026-05-07 02:58 | 41.69040 | -98.82076 | 39047 ft | 497 kts | 47° |
| 2026-05-07 02:59 | 41.73225 | -98.74696 | 39048 ft | 497 kts | 47° |
| 2026-05-07 02:59 | 41.77378 | -98.67356 | 39063 ft | 497 kts | 47° |
| 2026-05-07 03:00 | 41.81551 | -98.59966 | 39063 ft | 497 kts | 48° |
| 2026-05-07 03:00 | 41.85718 | -98.52562 | 39072 ft | 497 kts | 48° |
| 2026-05-07 03:01 | 41.89856 | -98.45115 | 39078 ft | 499 kts | 51° |
| 2026-05-07 03:01 | 41.93345 | -98.36989 | 39066 ft | 504 kts | 58° |
| 2026-05-07 03:02 | 41.96559 | -98.28602 | 39074 ft | 505 kts | 58° |
| 2026-05-07 03:02 | 41.99780 | -98.20210 | 39071 ft | 505 kts | 58° |
| 2026-05-07 03:03 | 42.03009 | -98.11882 | 39076 ft | 505 kts | 58° |
| 2026-05-07 03:03 | 42.05999 | -98.04193 | 39075 ft | 506 kts | 58° |
| 2026-05-07 03:04 | 42.09266 | -97.95803 | 39091 ft | 506 kts | 58° |
| 2026-05-07 03:04 | 42.12554 | -97.87400 | 39079 ft | 506 kts | 58° |
| 2026-05-07 03:05 | 42.15491 | -97.79922 | 39092 ft | 507 kts | 58° |
| 2026-05-07 03:05 | 42.18793 | -97.71525 | 39085 ft | 506 kts | 58° |
| 2026-05-07 03:06 | 42.21985 | -97.63117 | 39081 ft | 507 kts | 59° |
| 2026-05-07 03:06 | 42.25164 | -97.54604 | 39102 ft | 510 kts | 59° |
| 2026-05-07 03:07 | 42.28415 | -97.45987 | 39100 ft | 519 kts | 59° |
| 2026-05-07 03:07 | 42.31725 | -97.37248 | 39089 ft | 526 kts | 59° |
| 2026-05-07 03:08 | 42.35078 | -97.28370 | 39083 ft | 533 kts | 59° |
| 2026-05-07 03:08 | 42.38452 | -97.19399 | 39079 ft | 537 kts | 59° |
| 2026-05-07 03:09 | 42.41821 | -97.10406 | 39072 ft | 540 kts | 59° |
| 2026-05-07 03:09 | 42.45208 | -97.01338 | 39067 ft | 540 kts | 59° |
| 2026-05-07 03:10 | 42.48597 | -96.92239 | 39062 ft | 540 kts | 59° |
| 2026-05-07 03:10 | 42.51904 | -96.83114 | 39066 ft | 541 kts | 65° |
| 2026-05-07 03:11 | 42.53905 | -96.73231 | 39063 ft | 546 kts | 79° |
| 2026-05-07 03:11 | 42.54310 | -96.62938 | 39068 ft | 548 kts | 89° |
| 2026-05-07 03:12 | 42.54226 | -96.52599 | 39047 ft | 548 kts | 89° |
| 2026-05-07 03:12 | 42.54153 | -96.42260 | 39059 ft | 548 kts | 89° |
| 2026-05-07 03:13 | 42.54132 | -96.31988 | 39050 ft | 548 kts | 89° |
| 2026-05-07 03:13 | 42.54127 | -96.21645 | 39049 ft | 549 kts | 89° |
| 2026-05-07 03:14 | 42.54114 | -96.11292 | 39055 ft | 549 kts | 89° |
| 2026-05-07 03:15 | 42.54069 | -95.95745 | 39040 ft | 549 kts | 89° |
| 2026-05-07 03:15 | 42.54024 | -95.85376 | 39056 ft | 550 kts | 90° |
| 2026-05-07 03:16 | 42.53971 | -95.75060 | 39050 ft | 550 kts | 90° |
| 2026-05-07 03:16 | 42.53909 | -95.64655 | 39056 ft | 551 kts | 90° |
| 2026-05-07 03:17 | 42.53837 | -95.54268 | 39045 ft | 551 kts | 90° |
| 2026-05-07 03:17 | 42.53755 | -95.43840 | 39046 ft | 552 kts | 90° |
| 2026-05-07 03:18 | 42.53665 | -95.33498 | 39047 ft | 552 kts | 90° |
| 2026-05-07 03:18 | 42.53565 | -95.23073 | 39044 ft | 553 kts | 91° |
| 2026-05-07 03:19 | 42.53455 | -95.12643 | 39047 ft | 553 kts | 91° |
| 2026-05-07 03:19 | 42.53335 | -95.02210 | 39057 ft | 553 kts | 91° |
| 2026-05-07 03:20 | 42.53207 | -94.91840 | 39067 ft | 554 kts | 91° |
| 2026-05-07 03:20 | 42.53069 | -94.81388 | 39075 ft | 554 kts | 91° |
| 2026-05-07 03:21 | 42.52921 | -94.70932 | 39087 ft | 555 kts | 91° |
| 2026-05-07 03:21 | 42.52763 | -94.60467 | 39082 ft | 555 kts | 91° |
| 2026-05-07 03:22 | 42.52596 | -94.50004 | 39061 ft | 555 kts | 91° |
| 2026-05-07 03:22 | 42.52420 | -94.39593 | 39055 ft | 556 kts | 92° |
| 2026-05-07 03:23 | 42.52233 | -94.29112 | 39057 ft | 557 kts | 92° |
| 2026-05-07 03:23 | 42.52037 | -94.18604 | 39068 ft | 558 kts | 92° |
| 2026-05-07 03:24 | 42.51830 | -94.08075 | 39055 ft | 559 kts | 92° |
| 2026-05-07 03:24 | 42.51613 | -93.97527 | 39048 ft | 560 kts | 92° |
| 2026-05-07 03:25 | 42.51386 | -93.86954 | 39052 ft | 561 kts | 92° |
| 2026-05-07 03:25 | 42.51149 | -93.76366 | 39049 ft | 562 kts | 92° |
| 2026-05-07 03:26 | 42.50945 | -93.67561 | 39074 ft | 562 kts | 92° |
| 2026-05-07 03:26 | 42.50690 | -93.56973 | 39067 ft | 562 kts | 92° |
| 2026-05-07 03:27 | 42.50425 | -93.46372 | 39076 ft | 562 kts | 93° |
| 2026-05-07 03:27 | 42.50105 | -93.34064 | 39078 ft | 562 kts | 93° |
| 2026-05-07 03:28 | 42.49866 | -93.25186 | 39076 ft | 562 kts | 93° |
| 2026-05-07 03:28 | 42.49574 | -93.14666 | 39081 ft | 562 kts | 93° |
| 2026-05-07 03:29 | 42.49270 | -93.04086 | 39080 ft | 562 kts | 93° |
| 2026-05-07 03:29 | 42.48957 | -92.93499 | 39066 ft | 562 kts | 93° |
| 2026-05-07 03:30 | 42.48634 | -92.82928 | 39065 ft | 562 kts | 93° |
| 2026-05-07 03:30 | 42.48301 | -92.72342 | 39073 ft | 562 kts | 94° |
| 2026-05-07 03:31 | 42.47958 | -92.61742 | 39067 ft | 562 kts | 94° |
| 2026-05-07 03:31 | 42.47605 | -92.51160 | 39063 ft | 563 kts | 94° |
| 2026-05-07 03:32 | 42.47242 | -92.40554 | 39069 ft | 563 kts | 94° |
| 2026-05-07 03:32 | 42.46872 | -92.30016 | 39063 ft | 563 kts | 94° |
| 2026-05-07 03:33 | 42.46489 | -92.19410 | 39062 ft | 564 kts | 94° |
| 2026-05-07 03:33 | 42.46096 | -92.08789 | 39090 ft | 564 kts | 94° |
| 2026-05-07 03:34 | 42.45693 | -91.98157 | 39090 ft | 565 kts | 94° |
| 2026-05-07 03:34 | 42.45279 | -91.87520 | 39099 ft | 566 kts | 94° |
| 2026-05-07 03:35 | 42.44858 | -91.76929 | 39077 ft | 566 kts | 95° |
| 2026-05-07 03:35 | 42.44424 | -91.66268 | 39079 ft | 567 kts | 95° |
| 2026-05-07 03:36 | 42.43980 | -91.55611 | 39082 ft | 567 kts | 95° |
| 2026-05-07 03:36 | 42.43527 | -91.44952 | 39075 ft | 568 kts | 95° |
| 2026-05-07 03:37 | 42.43061 | -91.34267 | 39071 ft | 568 kts | 95° |
| 2026-05-07 03:37 | 42.42587 | -91.23586 | 39071 ft | 568 kts | 95° |
| 2026-05-07 03:38 | 42.42106 | -91.12986 | 39078 ft | 569 kts | 95° |
| 2026-05-07 03:38 | 42.41610 | -91.02281 | 39075 ft | 569 kts | 95° |
| 2026-05-07 03:39 | 42.41104 | -90.91577 | 39086 ft | 570 kts | 95° |
| 2026-05-07 03:39 | 42.40589 | -90.80864 | 39085 ft | 570 kts | 96° |
| 2026-05-07 03:40 | 42.40144 | -90.70144 | 39079 ft | 571 kts | 92° |
| 2026-05-07 03:40 | 42.40518 | -90.59445 | 39124 ft | 574 kts | 86° |
| 2026-05-07 03:41 | 42.41104 | -90.48655 | 39098 ft | 575 kts | 86° |
| 2026-05-07 03:41 | 42.41654 | -90.37855 | 39088 ft | 575 kts | 87° |
| 2026-05-07 03:42 | 42.42148 | -90.27036 | 39086 ft | 576 kts | 88° |
| 2026-05-07 03:42 | 42.42618 | -90.16198 | 39083 ft | 576 kts | 88° |
| 2026-05-07 03:43 | 42.43080 | -90.05357 | 39090 ft | 577 kts | 88° |
| 2026-05-07 03:43 | 42.43537 | -89.94509 | 39080 ft | 577 kts | 88° |
| 2026-05-07 03:44 | 42.43985 | -89.83666 | 39078 ft | 577 kts | 88° |
| 2026-05-07 03:44 | 42.44420 | -89.72888 | 39073 ft | 577 kts | 88° |
| 2026-05-07 03:45 | 42.44847 | -89.62037 | 39075 ft | 577 kts | 88° |
| 2026-05-07 03:45 | 42.45264 | -89.51164 | 39068 ft | 577 kts | 88° |
| 2026-05-07 03:46 | 42.45671 | -89.40303 | 39075 ft | 577 kts | 88° |
| 2026-05-07 03:46 | 42.46065 | -89.29518 | 39082 ft | 577 kts | 88° |
| 2026-05-07 03:47 | 42.46451 | -89.18656 | 39086 ft | 577 kts | 88° |
| 2026-05-07 03:47 | 42.46827 | -89.07802 | 39093 ft | 577 kts | 88° |
| 2026-05-07 03:48 | 42.47192 | -88.96941 | 39074 ft | 577 kts | 88° |
| 2026-05-07 03:48 | 42.47548 | -88.86076 | 39082 ft | 578 kts | 89° |
| 2026-05-07 03:49 | 42.47893 | -88.75201 | 39068 ft | 578 kts | 89° |
| 2026-05-07 03:49 | 42.48229 | -88.64312 | 39071 ft | 578 kts | 89° |
| 2026-05-07 03:50 | 42.48554 | -88.53422 | 39079 ft | 579 kts | 89° |
| 2026-05-07 03:50 | 42.48867 | -88.42577 | 39062 ft | 579 kts | 89° |
| 2026-05-07 03:51 | 42.49173 | -88.31666 | 39064 ft | 580 kts | 89° |
| 2026-05-07 03:51 | 42.49468 | -88.20746 | 39064 ft | 580 kts | 89° |
| 2026-05-07 03:52 | 42.49753 | -88.09805 | 39060 ft | 580 kts | 89° |
| 2026-05-07 03:52 | 42.50027 | -87.98854 | 39055 ft | 580 kts | 90° |
| 2026-05-07 03:53 | 42.50099 | -87.87985 | 39051 ft | 580 kts | 92° |
| 2026-05-07 03:53 | 42.50025 | -87.77056 | 39054 ft | 580 kts | 92° |
| 2026-05-07 03:54 | 42.49954 | -87.66121 | 39049 ft | 580 kts | 92° |
| 2026-05-07 03:54 | 42.49909 | -87.55179 | 39053 ft | 580 kts | 92° |
| 2026-05-07 03:55 | 42.49869 | -87.44235 | 39048 ft | 581 kts | 92° |
| 2026-05-07 03:55 | 42.49818 | -87.33297 | 39049 ft | 581 kts | 92° |
| 2026-05-07 03:56 | 42.49752 | -87.22334 | 39050 ft | 581 kts | 92° |
| 2026-05-07 03:56 | 42.49674 | -87.11383 | 39051 ft | 581 kts | 92° |
| 2026-05-07 03:57 | 42.49587 | -87.00488 | 39054 ft | 582 kts | 92° |
| 2026-05-07 03:57 | 42.49488 | -86.89517 | 39039 ft | 582 kts | 93° |
| 2026-05-07 03:58 | 42.49380 | -86.78532 | 39037 ft | 583 kts | 93° |
| 2026-05-07 03:58 | 42.49185 | -86.67550 | 39036 ft | 583 kts | 95° |
| 2026-05-07 03:59 | 42.48798 | -86.56579 | 39008 ft | 583 kts | 95° |
| 2026-05-07 03:59 | 42.48377 | -86.45612 | 39016 ft | 584 kts | 95° |
| 2026-05-07 04:00 | 42.47977 | -86.34595 | 39021 ft | 584 kts | 95° |
| 2026-05-07 04:00 | 42.47591 | -86.23654 | 39028 ft | 585 kts | 95° |
| 2026-05-07 04:01 | 42.47195 | -86.12617 | 39017 ft | 586 kts | 95° |
| 2026-05-07 04:01 | 42.46785 | -86.01581 | 39025 ft | 587 kts | 95° |
| 2026-05-07 04:02 | 42.46361 | -85.90540 | 39024 ft | 588 kts | 95° |
| 2026-05-07 04:02 | 42.45926 | -85.79472 | 39022 ft | 588 kts | 96° |
| 2026-05-07 04:03 | 42.45483 | -85.68464 | 39020 ft | 588 kts | 96° |
| 2026-05-07 04:03 | 42.45026 | -85.57399 | 39023 ft | 588 kts | 96° |
| 2026-05-07 04:04 | 42.44559 | -85.46337 | 39017 ft | 588 kts | 96° |
| 2026-05-07 04:04 | 42.44083 | -85.35293 | 39019 ft | 587 kts | 96° |
| 2026-05-07 04:05 | 42.43595 | -85.24257 | 39011 ft | 587 kts | 96° |
| 2026-05-07 04:05 | 42.43100 | -85.13273 | 39012 ft | 587 kts | 96° |
| 2026-05-07 04:06 | 42.42592 | -85.02248 | 38991 ft | 587 kts | 96° |
| 2026-05-07 04:06 | 42.42073 | -84.91207 | 38996 ft | 587 kts | 96° |
| 2026-05-07 04:07 | 42.41544 | -84.80182 | 39001 ft | 587 kts | 96° |
| 2026-05-07 04:07 | 42.41003 | -84.69152 | 39002 ft | 588 kts | 97° |
| 2026-05-07 04:08 | 42.40455 | -84.58170 | 38998 ft | 588 kts | 97° |
| 2026-05-07 04:08 | 42.39889 | -84.47052 | 39005 ft | 589 kts | 97° |
| 2026-05-07 04:09 | 42.39319 | -84.36068 | 39015 ft | 590 kts | 97° |
| 2026-05-07 04:09 | 42.38733 | -84.24991 | 39000 ft | 591 kts | 97° |
| 2026-05-07 04:10 | 42.38136 | -84.13884 | 39004 ft | 591 kts | 97° |
| 2026-05-07 04:10 | 42.37527 | -84.02782 | 39002 ft | 592 kts | 97° |
| 2026-05-07 04:11 | 42.36906 | -83.91648 | 38995 ft | 593 kts | 97° |
| 2026-05-07 04:11 | 42.36276 | -83.80539 | 38990 ft | 593 kts | 97° |
| 2026-05-07 04:12 | 42.35634 | -83.69411 | 38995 ft | 593 kts | 98° |
| 2026-05-07 04:12 | 42.34985 | -83.58363 | 38998 ft | 593 kts | 98° |
| 2026-05-07 04:13 | 42.34322 | -83.47250 | 38994 ft | 593 kts | 98° |
| 2026-05-07 04:13 | 42.33648 | -83.36133 | 38999 ft | 593 kts | 98° |
| 2026-05-07 04:14 | 42.32964 | -83.25025 | 38999 ft | 593 kts | 98° |
| 2026-05-07 04:14 | 42.32269 | -83.13935 | 38970 ft | 593 kts | 98° |
| 2026-05-07 04:15 | 42.31565 | -83.02862 | 38994 ft | 592 kts | 98° |
| 2026-05-07 04:15 | 42.31489 | -83.01680 | 38995 ft | 592 kts | 98° |
| 2026-05-07 04:16 | 42.31038 | -82.94686 | 38994 ft | 591 kts | 98° |
| 2026-05-07 04:16 | 42.30438 | -82.85482 | 39003 ft | 591 kts | 98° |
| 2026-05-07 04:17 | 42.29702 | -82.74354 | 38985 ft | 591 kts | 98° |
| 2026-05-07 04:17 | 42.28962 | -82.63322 | 39003 ft | 590 kts | 98° |
| 2026-05-07 04:18 | 42.28594 | -82.57889 | 39006 ft | 590 kts | 98° |
| 2026-05-07 04:19 | 42.28449 | -82.55763 | 39008 ft | 590 kts | 98° |
| 2026-05-07 04:19 | 42.27690 | -82.44718 | 39005 ft | 591 kts | 98° |
| 2026-05-07 04:20 | 42.26919 | -82.33664 | 38991 ft | 591 kts | 98° |
| 2026-05-07 04:20 | 42.26139 | -82.22632 | 38992 ft | 592 kts | 98° |
| 2026-05-07 04:21 | 42.24945 | -82.06020 | 38990 ft | 593 kts | 99° |
| 2026-05-07 04:21 | 42.24140 | -81.95014 | 38995 ft | 593 kts | 99° |
| 2026-05-07 04:22 | 42.23319 | -81.83922 | 39000 ft | 593 kts | 99° |
| 2026-05-07 04:22 | 42.22486 | -81.72834 | 39007 ft | 593 kts | 99° |
| 2026-05-07 04:23 | 42.21645 | -81.61772 | 39000 ft | 593 kts | 99° |
| 2026-05-07 04:23 | 42.20791 | -81.50685 | 39013 ft | 594 kts | 99° |
| 2026-05-07 04:24 | 42.19931 | -81.39674 | 39020 ft | 594 kts | 99° |
| 2026-05-07 04:24 | 42.19056 | -81.28595 | 39015 ft | 594 kts | 99° |
| 2026-05-07 04:25 | 42.18169 | -81.17507 | 39015 ft | 595 kts | 99° |
| 2026-05-07 04:25 | 42.17269 | -81.06403 | 39027 ft | 596 kts | 99° |
| 2026-05-07 04:26 | 42.16357 | -80.95278 | 39020 ft | 597 kts | 99° |
| 2026-05-07 04:26 | 42.15433 | -80.84128 | 39014 ft | 598 kts | 100° |
| 2026-05-07 04:27 | 42.14566 | -80.73797 | 39025 ft | 599 kts | 100° |
| 2026-05-07 04:27 | 42.13620 | -80.62652 | 39012 ft | 599 kts | 100° |
| 2026-05-07 04:28 | 42.12668 | -80.51563 | 38989 ft | 600 kts | 100° |
| 2026-05-07 04:28 | 42.11698 | -80.40397 | 39013 ft | 600 kts | 100° |
| 2026-05-07 04:29 | 42.10715 | -80.29212 | 39014 ft | 601 kts | 100° |
| 2026-05-07 04:29 | 42.09722 | -80.18029 | 39010 ft | 602 kts | 101° |
| 2026-05-07 04:30 | 42.08715 | -80.06822 | 39000 ft | 602 kts | 101° |
| 2026-05-07 04:30 | 42.07697 | -79.95617 | 39011 ft | 603 kts | 101° |
| 2026-05-07 04:31 | 42.06675 | -79.84493 | 39016 ft | 603 kts | 101° |
| 2026-05-07 04:31 | 42.05634 | -79.73275 | 39007 ft | 604 kts | 101° |
| 2026-05-07 04:32 | 42.04582 | -79.62062 | 39014 ft | 604 kts | 101° |
| 2026-05-07 04:32 | 42.03517 | -79.50845 | 39009 ft | 604 kts | 101° |
| 2026-05-07 04:33 | 42.02442 | -79.39632 | 38979 ft | 604 kts | 102° |
| 2026-05-07 04:33 | 42.01356 | -79.28415 | 38991 ft | 605 kts | 102° |
| 2026-05-07 04:34 | 42.00259 | -79.17207 | 38998 ft | 605 kts | 102° |
| 2026-05-07 04:34 | 41.99148 | -79.05973 | 38998 ft | 605 kts | 102° |
| 2026-05-07 04:35 | 41.98034 | -78.94821 | 38994 ft | 606 kts | 102° |
| 2026-05-07 04:35 | 41.97853 | -78.93019 | 38987 ft | 606 kts | 102° |
| 2026-05-07 04:36 | 41.96740 | -78.82007 | 39001 ft | 606 kts | 102° |
| 2026-05-07 04:36 | 41.95593 | -78.70782 | 38981 ft | 607 kts | 102° |
| 2026-05-07 04:37 | 41.94433 | -78.59528 | 38973 ft | 608 kts | 102° |
| 2026-05-07 04:37 | 41.93262 | -78.48263 | 38979 ft | 609 kts | 103° |
| 2026-05-07 04:38 | 41.92077 | -78.36978 | 38988 ft | 610 kts | 103° |
| 2026-05-07 04:38 | 41.90880 | -78.25704 | 38985 ft | 611 kts | 103° |
| 2026-05-07 04:39 | 41.89678 | -78.14473 | 38979 ft | 611 kts | 103° |
| 2026-05-07 04:39 | 41.88458 | -78.03193 | 38981 ft | 611 kts | 103° |
| 2026-05-07 04:40 | 41.87227 | -77.91895 | 38946 ft | 611 kts | 103° |
| 2026-05-07 04:40 | 41.85478 | -77.80877 | 38966 ft | 601 kts | 114° |
| 2026-05-07 04:41 | 41.82655 | -77.70399 | 38978 ft | 597 kts | 118° |
| 2026-05-07 04:41 | 41.79825 | -77.59911 | 38952 ft | 599 kts | 117° |
| 2026-05-07 04:42 | 41.77056 | -77.49391 | 38962 ft | 598 kts | 117° |
| 2026-05-07 04:42 | 41.74248 | -77.38883 | 38964 ft | 599 kts | 117° |
| 2026-05-07 04:43 | 41.71423 | -77.28368 | 38969 ft | 600 kts | 117° |
| 2026-05-07 04:43 | 41.68609 | -77.17924 | 38894 ft | 601 kts | 118° |
| 2026-05-07 04:44 | 41.65739 | -77.07335 | 38962 ft | 610 kts | 118° |
| 2026-05-07 04:44 | 41.62826 | -76.96609 | 38971 ft | 615 kts | 117° |
| 2026-05-07 04:45 | 41.59904 | -76.85860 | 38921 ft | 615 kts | 117° |
| 2026-05-07 04:45 | 41.56967 | -76.75115 | 38943 ft | 615 kts | 118° |
| 2026-05-07 04:46 | 41.54041 | -76.64466 | 38944 ft | 615 kts | 118° |
| 2026-05-07 04:46 | 41.51087 | -76.53752 | 38945 ft | 615 kts | 118° |
| 2026-05-07 04:47 | 41.48130 | -76.43056 | 38933 ft | 614 kts | 118° |
| 2026-05-07 04:47 | 41.45168 | -76.32376 | 38930 ft | 614 kts | 118° |
| 2026-05-07 04:48 | 41.42195 | -76.21700 | 38936 ft | 613 kts | 118° |
| 2026-05-07 04:48 | 41.39216 | -76.11053 | 38915 ft | 614 kts | 118° |
| 2026-05-07 04:49 | 41.36225 | -76.00400 | 38922 ft | 614 kts | 118° |
| 2026-05-07 04:49 | 41.33217 | -75.89754 | 38941 ft | 614 kts | 118° |
| 2026-05-07 04:50 | 41.30227 | -75.79194 | 38920 ft | 614 kts | 118° |
| 2026-05-07 04:50 | 41.27197 | -75.68576 | 38948 ft | 613 kts | 120° |
| 2026-05-07 04:51 | 41.23804 | -75.58216 | 38946 ft | 610 kts | 123° |
| 2026-05-07 04:51 | 41.20285 | -75.47949 | 38770 ft | 614 kts | 123° |
| 2026-05-07 04:52 | 41.18522 | -75.42759 | 38280 ft | 618 kts | 123° |
| 2026-05-07 04:52 | 41.16773 | -75.37552 | 37684 ft | 615 kts | 122° |
| 2026-05-07 04:52 | 41.15040 | -75.32387 | 37177 ft | 611 kts | 122° |
| 2026-05-07 04:52 | 41.13309 | -75.27245 | 36630 ft | 609 kts | 123° |
| 2026-05-07 04:53 | 41.11590 | -75.22170 | 35704 ft | 613 kts | 123° |
| 2026-05-07 04:53 | 41.09837 | -75.17017 | 34516 ft | 619 kts | 123° |
| 2026-05-07 04:53 | 41.08066 | -75.11796 | 33305 ft | 621 kts | 123° |
| 2026-05-07 04:53 | 41.06291 | -75.06559 | 32022 ft | 621 kts | 123° |
| 2026-05-07 04:54 | 41.04520 | -75.01350 | 30780 ft | 618 kts | 123° |
| 2026-05-07 04:54 | 41.02759 | -74.96184 | 29533 ft | 614 kts | 123° |
| 2026-05-07 04:54 | 41.01098 | -74.90969 | 28193 ft | 615 kts | 118° |
| 2026-05-07 04:54 | 40.99768 | -74.85618 | 27423 ft | 607 kts | 113° |
| 2026-05-07 04:55 | 40.98737 | -74.80263 | 26984 ft | 593 kts | 108° |
| 2026-05-07 04:55 | 40.98061 | -74.74918 | 26570 ft | 582 kts | 103° |
| 2026-05-07 04:55 | 40.97514 | -74.69744 | 26180 ft | 569 kts | 103° |
| 2026-05-07 04:55 | 40.96962 | -74.64625 | 25779 ft | 557 kts | 104° |
| 2026-05-07 04:56 | 40.96398 | -74.59607 | 25373 ft | 546 kts | 104° |
| 2026-05-07 04:56 | 40.95825 | -74.54691 | 24988 ft | 536 kts | 104° |
| 2026-05-07 04:56 | 40.95249 | -74.49856 | 24599 ft | 528 kts | 105° |
| 2026-05-07 04:56 | 40.94675 | -74.45085 | 24233 ft | 520 kts | 105° |
| 2026-05-07 04:57 | 40.94108 | -74.40390 | 23862 ft | 513 kts | 105° |
| 2026-05-07 04:57 | 40.93549 | -74.35765 | 23480 ft | 507 kts | 105° |
| 2026-05-07 04:57 | 40.92994 | -74.31179 | 23043 ft | 502 kts | 104° |
| 2026-05-07 04:57 | 40.92445 | -74.26641 | 22619 ft | 496 kts | 104° |
| 2026-05-07 04:58 | 40.91904 | -74.22167 | 22192 ft | 490 kts | 104° |
| 2026-05-07 04:58 | 40.91365 | -74.17733 | 21779 ft | 484 kts | 104° |
| 2026-05-07 04:58 | 40.90832 | -74.13357 | 21365 ft | 479 kts | 104° |
| 2026-05-07 04:58 | 40.90297 | -74.09099 | 20973 ft | 473 kts | 105° |
| 2026-05-07 04:59 | 40.89723 | -74.04850 | 20556 ft | 466 kts | 105° |
| 2026-05-07 04:59 | 40.89138 | -74.00659 | 20160 ft | 460 kts | 106° |
| 2026-05-07 04:59 | 40.88555 | -73.96534 | 19755 ft | 453 kts | 105° |
| 2026-05-07 04:59 | 40.87981 | -73.92459 | 19365 ft | 447 kts | 105° |
| 2026-05-07 05:00 | 40.87420 | -73.88451 | 18988 ft | 442 kts | 105° |
| 2026-05-07 05:00 | 40.86862 | -73.84478 | 18614 ft | 436 kts | 105° |
| 2026-05-07 05:00 | 40.86315 | -73.80567 | 18244 ft | 430 kts | 105° |
| 2026-05-07 05:00 | 40.85776 | -73.76714 | 17815 ft | 424 kts | 106° |
| 2026-05-07 05:01 | 40.85240 | -73.72898 | 17401 ft | 421 kts | 106° |
| 2026-05-07 05:01 | 40.84707 | -73.69115 | 16979 ft | 417 kts | 106° |
| 2026-05-07 05:01 | 40.84176 | -73.65358 | 16569 ft | 414 kts | 106° |
| 2026-05-07 05:01 | 40.83650 | -73.61638 | 16143 ft | 410 kts | 106° |
| 2026-05-07 05:02 | 40.83135 | -73.58002 | 15762 ft | 406 kts | 106° |
| 2026-05-07 05:02 | 40.82777 | -73.54329 | 15343 ft | 405 kts | 95° |
| 2026-05-07 05:02 | 40.83108 | -73.50621 | 14945 ft | 409 kts | 77° |
| 2026-05-07 05:02 | 40.84182 | -73.47148 | 14556 ft | 408 kts | 58° |
| 2026-05-07 05:03 | 40.85912 | -73.44220 | 14181 ft | 401 kts | 40° |
| 2026-05-07 05:03 | 40.88135 | -73.42099 | 13801 ft | 390 kts | 21° |
| 2026-05-07 05:03 | 40.89778 | -73.41221 | 13556 ft | 381 kts | 9° |
| 2026-05-07 05:03 | 40.93161 | -73.40160 | 13007 ft | 373 kts | 3° |
| 2026-05-07 05:04 | 40.95692 | -73.39584 | 12591 ft | 362 kts | 356° |
| 2026-05-07 05:04 | 40.98144 | -73.39771 | 12162 ft | 349 kts | 341° |
| 2026-05-07 05:04 | 40.99748 | -73.40192 | 11854 ft | 347 kts | 338° |
| 2026-05-07 05:04 | 41.02058 | -73.40861 | 11354 ft | 341 kts | 342° |
| 2026-05-07 05:05 | 41.04476 | -73.40753 | 10853 ft | 356 kts | 4° |
| 2026-05-07 05:05 | 41.06849 | -73.39699 | 10373 ft | 366 kts | 21° |
| 2026-05-07 05:05 | 41.08889 | -73.37631 | 9885 ft | 375 kts | 45° |
| 2026-05-07 05:05 | 41.10290 | -73.34708 | 9384 ft | 377 kts | 68° |
| 2026-05-07 05:06 | 41.10849 | -73.31355 | 8869 ft | 371 kts | 91° |
| 2026-05-07 05:06 | 41.10511 | -73.28038 | 8360 ft | 358 kts | 114° |
| 2026-05-07 05:06 | 41.09357 | -73.25218 | 7864 ft | 341 kts | 137° |
| 2026-05-07 05:06 | 41.07605 | -73.23282 | 7366 ft | 320 kts | 161° |
| 2026-05-07 05:07 | 41.05551 | -73.22564 | 6884 ft | 297 kts | 185° |
| 2026-05-07 05:07 | 41.03559 | -73.22716 | 6411 ft | 277 kts | 195° |
| 2026-05-07 05:07 | 41.01715 | -73.23141 | 5909 ft | 261 kts | 198° |
| 2026-05-07 05:07 | 40.99973 | -73.23644 | 5389 ft | 255 kts | 199° |
| 2026-05-07 05:08 | 40.98238 | -73.24185 | 4902 ft | 256 kts | 199° |
| 2026-05-07 05:08 | 40.96542 | -73.24727 | 4728 ft | 249 kts | 199° |
| 2026-05-07 05:08 | 40.94880 | -73.25265 | 4579 ft | 246 kts | 199° |
| 2026-05-07 05:08 | 40.93207 | -73.25809 | 4257 ft | 248 kts | 199° |
| 2026-05-07 05:09 | 40.91526 | -73.26359 | 4007 ft | 249 kts | 199° |
| 2026-05-07 05:09 | 40.89845 | -73.26906 | 3796 ft | 249 kts | 198° |
| 2026-05-07 05:09 | 40.88163 | -73.27451 | 3538 ft | 246 kts | 198° |
| 2026-05-07 05:09 | 40.86541 | -73.27976 | 3269 ft | 237 kts | 198° |
| 2026-05-07 05:10 | 40.84960 | -73.28489 | 3200 ft | 230 kts | 198° |
| 2026-05-07 05:10 | 40.83420 | -73.28987 | 3135 ft | 225 kts | 198° |
| 2026-05-07 05:10 | 40.81932 | -73.29468 | 3040 ft | 215 kts | 198° |
| 2026-05-07 05:10 | 40.80492 | -73.29933 | 2983 ft | 210 kts | 198° |
| 2026-05-07 05:11 | 40.79073 | -73.30410 | 2966 ft | 213 kts | 202° |
| 2026-05-07 05:11 | 40.77671 | -73.31106 | 2991 ft | 216 kts | 206° |
| 2026-05-07 05:11 | 40.76298 | -73.31861 | 2962 ft | 215 kts | 207° |
| 2026-05-07 05:11 | 40.74928 | -73.32617 | 2966 ft | 212 kts | 206° |
| 2026-05-07 05:12 | 40.73570 | -73.33361 | 2961 ft | 210 kts | 206° |
| 2026-05-07 05:12 | 40.72222 | -73.34096 | 2968 ft | 209 kts | 206° |
| 2026-05-07 05:12 | 40.70880 | -73.34825 | 2960 ft | 208 kts | 206° |
| 2026-05-07 05:12 | 40.69541 | -73.35550 | 2983 ft | 208 kts | 206° |
| 2026-05-07 05:13 | 40.68194 | -73.36278 | 2971 ft | 209 kts | 206° |
| 2026-05-07 05:13 | 40.66841 | -73.37006 | 2983 ft | 210 kts | 206° |
| 2026-05-07 05:13 | 40.65481 | -73.37737 | 2973 ft | 212 kts | 206° |
| 2026-05-07 05:13 | 40.64111 | -73.38473 | 2966 ft | 213 kts | 206° |
| 2026-05-07 05:14 | 40.62757 | -73.39203 | 2984 ft | 212 kts | 208° |
| 2026-05-07 05:14 | 40.61645 | -73.40347 | 2964 ft | 201 kts | 237° |
| 2026-05-07 05:14 | 40.60835 | -73.41888 | 2990 ft | 209 kts | 236° |
| 2026-05-07 05:14 | 40.59974 | -73.43427 | 2963 ft | 208 kts | 236° |
| 2026-05-07 05:15 | 40.59121 | -73.44955 | 2967 ft | 205 kts | 236° |
| 2026-05-07 05:15 | 40.58285 | -73.46457 | 2961 ft | 203 kts | 236° |
| 2026-05-07 05:15 | 40.57461 | -73.47944 | 2967 ft | 200 kts | 236° |
| 2026-05-07 05:15 | 40.56627 | -73.49449 | 2986 ft | 205 kts | 236° |
| 2026-05-07 05:16 | 40.55784 | -73.50970 | 2978 ft | 206 kts | 235° |
| 2026-05-07 05:16 | 40.54985 | -73.52524 | 2955 ft | 202 kts | 248° |
| 2026-05-07 05:16 | 40.54815 | -73.54320 | 2991 ft | 201 kts | 278° |
| 2026-05-07 05:16 | 40.55286 | -73.56062 | 2986 ft | 206 kts | 296° |
| 2026-05-07 05:17 | 40.56021 | -73.57695 | 2992 ft | 208 kts | 298° |
| 2026-05-07 05:17 | 40.56777 | -73.59309 | 2883 ft | 207 kts | 298° |
| 2026-05-07 05:17 | 40.57517 | -73.60900 | 2756 ft | 206 kts | 298° |
| 2026-05-07 05:17 | 40.58264 | -73.62522 | 2643 ft | 205 kts | 298° |
| 2026-05-07 05:18 | 40.58988 | -73.64098 | 2428 ft | 198 kts | 298° |
| 2026-05-07 05:18 | 40.59677 | -73.65626 | 2110 ft | 188 kts | 299° |
| 2026-05-07 05:18 | 40.60329 | -73.67042 | 1884 ft | 176 kts | 303° |
| 2026-05-07 05:18 | 40.60971 | -73.68395 | 1590 ft | 174 kts | 303° |
| 2026-05-07 05:19 | 40.61585 | -73.69732 | 1438 ft | 165 kts | 303° |
| 2026-05-07 05:19 | 40.62146 | -73.70995 | 1182 ft | 156 kts | 303° |
| 2026-05-07 05:19 | 40.62702 | -73.72218 | 1014 ft | 156 kts | 303° |
| 2026-05-07 05:19 | 40.63241 | -73.73396 | 742 ft | 145 kts | 301° |
| 2026-05-07 05:20 | 40.63737 | -73.74509 | 445 ft | 135 kts | 302° |
| 2026-05-07 05:20 | 40.64206 | -73.75554 | 172 ft | 132 kts | 302° |
| 2026-05-07 05:20 | 40.64643 | -73.76522 | 27 ft | 112 kts | 303° |
| 2026-05-07 05:20 | 40.64830 | -73.76939 | 32 ft | 0 kts | 296° |
| 2026-05-07 05:22 | 40.64831 | -73.76942 | 32 ft | 2 kts | 297° |
| 2026-05-07 05:22 | 40.64905 | -73.77107 | 26 ft | 39 kts | 302° |
| 2026-05-07 05:22 | 40.65070 | -73.77465 | 30 ft | 47 kts | 300° |
| 2026-05-07 05:22 | 40.65216 | -73.77793 | 29 ft | 31 kts | 291° |
| 2026-05-07 05:23 | 40.65182 | -73.77943 | 29 ft | 10 kts | 217° |
| 2026-05-07 05:23 | 40.65127 | -73.78007 | 28 ft | 11 kts | 247° |
| 2026-05-07 05:23 | 40.65143 | -73.78105 | 30 ft | 11 kts | 299° |
| 2026-05-07 05:23 | 40.65178 | -73.78202 | 29 ft | 12 kts | 275° |
| 2026-05-07 05:24 | 40.65164 | -73.78253 | 29 ft | 1 kts | 224° |
| 2026-05-07 05:24 | 40.65146 | -73.78274 | 29 ft | 9 kts | 226° |
| 2026-05-07 05:24 | 40.65124 | -73.78296 | 30 ft | 2 kts | 214° |
| 2026-05-07 05:24 | 40.65114 | -73.78305 | 29 ft | 0 kts | 213° |